createdAt,value
2022-08-20T00:02:14.607Z,21.52
2022-08-20T00:04:42.388Z,21.44
2022-08-20T00:07:10.599Z,21.33
2022-08-20T00:09:39.014Z,21.30
2022-08-20T00:12:07.278Z,21.22
2022-08-20T00:14:35.572Z,21.11
2022-08-20T00:17:05.267Z,21.14
2022-08-20T00:19:32.880Z,21.10
2022-08-20T00:22:00.880Z,21.02
2022-08-20T00:24:28.491Z,21.16
2022-08-20T00:26:56.453Z,21.13
2022-08-20T00:29:23.992Z,21.10
2022-08-20T00:31:51.877Z,21.05
2022-08-20T00:34:19.909Z,21.08
2022-08-20T00:36:48.126Z,21.06
2022-08-20T00:39:16.094Z,20.93
2022-08-20T00:41:43.644Z,20.84
2022-08-20T00:44:11.394Z,20.79
2022-08-20T00:46:41.103Z,20.78
2022-08-20T00:49:12.498Z,20.94
2022-08-20T00:51:45.224Z,20.93
2022-08-20T00:54:21.597Z,20.85
2022-08-20T00:57:01.574Z,20.75
2022-08-20T00:59:32.710Z,20.83
2022-08-20T01:02:01.179Z,20.91
2022-08-20T01:04:33.645Z,20.72
2022-08-20T01:07:03.115Z,20.68
2022-08-20T01:09:49.836Z,20.77
2022-08-20T01:12:19.993Z,20.84
2022-08-20T01:14:48.172Z,20.75
2022-08-20T01:17:20.566Z,20.47
2022-08-20T01:19:50.575Z,20.60
2022-08-20T01:22:46.954Z,20.60
2022-08-20T01:25:23.933Z,20.59
2022-08-20T01:27:55.541Z,20.65
2022-08-20T01:30:27.605Z,20.69
2022-08-20T01:32:55.905Z,20.76
2022-08-20T01:35:25.258Z,20.72
2022-08-20T01:37:54.375Z,20.66
2022-08-20T01:40:40.929Z,20.66
2022-08-20T01:43:09.945Z,20.79
2022-08-20T01:45:40.147Z,20.85
2022-08-20T01:48:08.560Z,20.99
2022-08-20T01:50:41.853Z,20.91
2022-08-20T01:53:25.263Z,20.73
2022-08-20T01:55:53.742Z,20.62
2022-08-20T01:58:22.872Z,20.65
2022-08-20T02:00:50.457Z,20.71
2022-08-20T02:03:18.362Z,20.82
2022-08-20T02:05:46.262Z,20.80
2022-08-20T02:08:13.975Z,20.92
2022-08-20T02:10:41.903Z,20.90
2022-08-20T02:13:10.252Z,20.92
2022-08-20T02:15:39.730Z,20.95
2022-08-20T02:18:15.722Z,20.96
2022-08-20T02:20:45.074Z,21.04
2022-08-20T02:23:13.455Z,20.81
2022-08-20T02:25:44.207Z,20.62
2022-08-20T02:28:15.155Z,20.51
2022-08-20T02:30:46.991Z,20.57
2022-08-20T02:33:16.468Z,20.57
2022-08-20T02:35:47.723Z,20.48
2022-08-20T02:38:16.300Z,20.54
2022-08-20T02:40:45.714Z,20.55
2022-08-20T02:43:14.559Z,20.65
2022-08-20T02:45:44.145Z,20.66
2022-08-20T02:48:21.304Z,20.73
2022-08-20T02:50:55.940Z,20.70
2022-08-20T02:53:26.247Z,20.69
2022-08-20T02:55:53.754Z,20.60
2022-08-20T02:58:23.443Z,20.44
2022-08-20T03:00:51.703Z,20.42
2022-08-20T03:03:22.954Z,20.42
2022-08-20T03:05:54.044Z,20.50
2022-08-20T03:08:22.854Z,20.61
2022-08-20T03:10:51.229Z,20.63
2022-08-20T03:13:20.940Z,20.66
2022-08-20T03:15:56.511Z,20.67
2022-08-20T03:18:29.464Z,20.70
2022-08-20T03:20:57.687Z,20.65
2022-08-20T03:23:25.922Z,20.35
2022-08-20T03:25:53.586Z,20.29
2022-08-20T03:28:21.463Z,20.36
2022-08-20T03:30:50.366Z,20.28
2022-08-20T03:33:20.232Z,20.16
2022-08-20T03:35:48.599Z,20.16
2022-08-20T03:38:18.702Z,20.06
2022-08-20T03:41:00.864Z,20.08
2022-08-20T03:43:29.228Z,20.11
2022-08-20T03:45:57.343Z,20.17
2022-08-20T03:48:25.771Z,20.24
2022-08-20T03:50:53.655Z,20.23
2022-08-20T03:53:22.907Z,20.21
2022-08-20T03:55:53.706Z,20.10
2022-08-20T03:58:34.800Z,20.16
2022-08-20T04:01:06.324Z,20.23
2022-08-20T04:03:35.585Z,20.24
2022-08-20T04:06:04.099Z,20.33
2022-08-20T04:08:31.667Z,20.31
2022-08-20T04:11:00.004Z,20.16
2022-08-20T04:13:30.004Z,20.25
2022-08-20T04:16:01.346Z,20.15
2022-08-20T04:18:28.885Z,20.10
2022-08-20T04:20:57.396Z,20.12
2022-08-20T04:23:25.430Z,20.20
2022-08-20T04:25:56.582Z,20.15
2022-08-20T04:28:29.098Z,20.16
2022-08-20T04:30:59.864Z,20.12
2022-08-20T04:33:33.980Z,20.11
2022-08-20T04:36:06.064Z,20.02
2022-08-20T04:38:49.960Z,20.08
2022-08-20T04:41:24.129Z,20.11
2022-08-20T04:43:54.535Z,20.20
2022-08-20T04:46:25.991Z,20.25
2022-08-20T04:48:54.440Z,20.32
2022-08-20T04:51:23.543Z,20.31
2022-08-20T04:53:57.598Z,20.32
2022-08-20T04:56:28.884Z,20.36
2022-08-20T04:59:00.359Z,20.32
2022-08-20T05:01:29.168Z,20.31
2022-08-20T05:03:58.489Z,20.39
2022-08-20T05:06:30.659Z,20.28
2022-08-20T05:09:00.490Z,20.19
2022-08-20T05:11:34.138Z,20.20
2022-08-20T05:14:08.007Z,20.19
2022-08-20T05:16:40.997Z,20.21
2022-08-20T05:19:12.954Z,20.36
2022-08-20T05:21:41.459Z,20.40
2022-08-20T05:24:10.481Z,20.69
2022-08-20T05:26:38.740Z,20.76
2022-08-20T05:29:07.535Z,20.83
2022-08-20T05:31:35.690Z,20.92
2022-08-20T05:34:10.014Z,21.12
2022-08-20T05:36:41.124Z,21.33
2022-08-20T05:39:10.477Z,21.46
2022-08-20T05:41:39.488Z,21.63
2022-08-20T05:44:13.615Z,21.70
2022-08-20T05:46:43.579Z,21.68
2022-08-20T05:49:15.556Z,21.76
2022-08-20T05:51:43.818Z,21.76
2022-08-20T05:54:11.776Z,21.97
2022-08-20T05:56:39.695Z,22.24
2022-08-20T05:59:09.573Z,22.34
2022-08-20T06:01:39.673Z,22.51
2022-08-20T06:04:26.968Z,22.65
2022-08-20T06:07:01.606Z,22.49
2022-08-20T06:09:32.657Z,22.37
2022-08-20T06:12:07.800Z,22.23
2022-08-20T06:14:35.752Z,22.45
2022-08-20T06:17:06.707Z,22.37
2022-08-20T06:19:36.481Z,22.40
2022-08-20T06:22:18.117Z,22.62
2022-08-20T06:24:51.851Z,22.95
2022-08-20T06:27:20.159Z,23.16
2022-08-20T06:29:48.710Z,23.22
2022-08-20T06:32:16.381Z,23.16
2022-08-20T06:34:49.941Z,23.31
2022-08-20T06:37:21.992Z,23.34
2022-08-20T06:39:53.436Z,23.24
2022-08-20T06:42:22.143Z,23.19
2022-08-20T06:44:50.917Z,22.96
2022-08-20T06:47:21.156Z,22.89
2022-08-20T06:49:50.023Z,22.90
2022-08-20T06:52:18.367Z,23.20
2022-08-20T06:54:46.513Z,23.45
2022-08-20T06:57:14.590Z,23.61
2022-08-20T06:59:42.577Z,23.94
2022-08-20T07:02:10.519Z,23.93
2022-08-20T07:04:38.220Z,24.21
2022-08-20T07:07:06.170Z,24.15
2022-08-20T07:09:34.644Z,24.05
2022-08-20T07:12:03.789Z,24.08
2022-08-20T07:14:31.804Z,24.20
2022-08-20T07:17:03.421Z,24.34
2022-08-20T07:19:31.613Z,24.35
2022-08-20T07:22:00.096Z,24.33
2022-08-20T07:24:33.235Z,24.34
2022-08-20T07:27:02.166Z,24.25
2022-08-20T07:29:49.878Z,24.33
2022-08-20T07:32:50.112Z,24.33
2022-08-20T07:35:19.164Z,24.69
2022-08-20T07:37:49.630Z,24.93
2022-08-20T07:40:25.880Z,25.15
2022-08-20T07:42:56.390Z,25.16
2022-08-20T07:45:24.919Z,25.13
2022-08-20T07:47:56.687Z,25.06
2022-08-20T07:50:26.736Z,25.12
2022-08-20T07:52:54.825Z,25.24
2022-08-20T07:55:22.783Z,25.46
2022-08-20T07:57:51.338Z,25.72
2022-08-20T08:00:21.671Z,25.87
2022-08-20T08:02:49.296Z,26.02
2022-08-20T08:05:18.809Z,26.09
2022-08-20T08:07:46.577Z,26.17
2022-08-20T08:10:18.609Z,26.14
2022-08-20T08:12:50.906Z,26.28
2022-08-20T08:15:25.446Z,26.53
2022-08-20T08:17:56.385Z,26.90
2022-08-20T08:20:24.311Z,26.94
2022-08-20T08:22:53.842Z,26.69
2022-08-20T08:25:22.265Z,26.93
2022-08-20T08:27:50.307Z,27.26
2022-08-20T08:30:18.264Z,27.27
2022-08-20T08:33:04.872Z,27.30
2022-08-20T08:35:32.773Z,27.34
2022-08-20T08:38:02.568Z,27.53
2022-08-20T08:40:32.586Z,28.15
2022-08-20T08:43:04.350Z,28.20
2022-08-20T08:45:43.876Z,28.16
2022-08-20T08:48:18.410Z,28.15
2022-08-20T08:50:53.253Z,28.38
2022-08-20T08:53:37.541Z,28.73
2022-08-20T08:56:06.624Z,28.95
2022-08-20T08:58:35.444Z,29.30
2022-08-20T09:01:09.884Z,29.50
2022-08-20T09:03:57.712Z,29.70
2022-08-20T09:06:28.267Z,29.66
2022-08-20T09:09:07.176Z,29.56
2022-08-20T09:11:50.708Z,29.90
2022-08-20T09:14:19.125Z,30.17
2022-08-20T09:16:53.215Z,30.17
2022-08-20T09:19:22.146Z,30.37
2022-08-20T09:21:50.293Z,30.25
2022-08-20T09:24:18.133Z,30.51
2022-08-20T09:26:46.166Z,30.47
2022-08-20T09:29:14.013Z,30.35
2022-08-20T09:31:43.010Z,30.40
2022-08-20T09:34:12.821Z,30.26
2022-08-20T09:36:40.265Z,30.15
2022-08-20T09:39:09.994Z,29.96
2022-08-20T09:41:37.527Z,29.84
2022-08-20T09:44:05.128Z,30.66
2022-08-20T09:46:33.099Z,31.12
2022-08-20T09:49:00.628Z,32.03
2022-08-20T09:51:28.215Z,32.80
2022-08-20T09:53:56.632Z,33.37
2022-08-20T09:56:25.280Z,33.79
2022-08-20T09:58:58.006Z,34.25
2022-08-20T10:01:28.204Z,34.85
2022-08-20T10:03:55.751Z,35.21
2022-08-20T10:06:23.536Z,36.25
2022-08-20T10:08:51.157Z,36.40
2022-08-20T10:11:19.365Z,36.51
2022-08-20T10:13:46.848Z,36.85
2022-08-20T10:16:14.396Z,37.58
2022-08-20T10:18:42.692Z,37.33
2022-08-20T10:21:13.266Z,37.84
2022-08-20T10:23:41.486Z,37.99
2022-08-20T10:26:10.871Z,37.27
2022-08-20T10:28:40.005Z,37.96
2022-08-20T10:31:10.162Z,38.36
2022-08-20T10:33:39.285Z,38.75
2022-08-20T10:36:09.029Z,39.05
2022-08-20T10:38:36.686Z,38.88
2022-08-20T10:41:05.830Z,39.21
2022-08-20T10:43:34.215Z,38.05
2022-08-20T10:46:02.392Z,37.86
2022-08-20T10:48:30.265Z,38.59
2022-08-20T10:50:58.334Z,39.46
2022-08-20T10:53:26.729Z,39.87
2022-08-20T10:55:55.976Z,40.60
2022-08-20T10:58:24.804Z,39.29
2022-08-20T11:00:53.203Z,40.19
2022-08-20T11:03:21.477Z,40.20
2022-08-20T11:05:49.747Z,40.07
2022-08-20T11:08:33.210Z,39.24
2022-08-20T11:11:02.047Z,39.57
2022-08-20T11:13:30.198Z,40.46
2022-08-20T11:15:58.190Z,40.40
2022-08-20T11:18:25.988Z,40.47
2022-08-20T11:20:54.481Z,41.36
2022-08-20T11:23:22.418Z,41.46
2022-08-20T11:25:50.901Z,41.15
2022-08-20T11:28:31.007Z,41.29
2022-08-20T11:31:01.047Z,41.07
2022-08-20T11:33:29.035Z,40.78
2022-08-20T11:35:57.119Z,40.07
2022-08-20T11:38:24.859Z,41.00
2022-08-20T11:40:52.520Z,40.68
2022-08-20T11:43:20.114Z,41.22
2022-08-20T11:45:54.884Z,41.05
2022-08-20T11:48:22.568Z,41.55
2022-08-20T11:50:50.437Z,41.84
2022-08-20T11:53:18.278Z,42.44
2022-08-20T11:55:48.196Z,42.21
2022-08-20T11:58:15.871Z,42.33
2022-08-20T12:00:43.650Z,42.43
2022-08-20T12:03:11.759Z,42.09
2022-08-20T12:05:45.262Z,42.22
2022-08-20T12:08:26.704Z,41.03
2022-08-20T12:10:58.669Z,41.00
2022-08-20T12:13:39.679Z,40.76
2022-08-20T12:16:17.583Z,41.19
2022-08-20T12:18:46.277Z,41.24
2022-08-20T12:21:14.180Z,41.73
2022-08-20T12:23:42.058Z,41.71
2022-08-20T12:26:09.826Z,41.15
2022-08-20T12:28:37.738Z,40.94
2022-08-20T12:31:05.409Z,41.68
2022-08-20T12:33:33.065Z,41.41
2022-08-20T12:36:01.093Z,41.79
2022-08-20T12:38:28.834Z,42.12
2022-08-20T12:40:56.512Z,42.48
2022-08-20T12:43:25.292Z,42.18
2022-08-20T12:45:53.524Z,42.41
2022-08-20T12:48:21.725Z,42.21
2022-08-20T12:50:50.362Z,42.36
2022-08-20T12:53:19.063Z,41.96
2022-08-20T12:55:47.330Z,42.45
2022-08-20T12:58:14.950Z,42.59
2022-08-20T13:00:47.250Z,42.78
2022-08-20T13:03:20.074Z,43.51
2022-08-20T13:05:49.462Z,43.53
2022-08-20T13:08:19.175Z,44.59
2022-08-20T13:10:47.454Z,44.71
2022-08-20T13:13:20.791Z,44.30
2022-08-20T13:15:51.895Z,45.05
2022-08-20T13:18:20.260Z,46.39
2022-08-20T13:20:48.500Z,46.96
2022-08-20T13:23:16.383Z,47.81
2022-08-20T13:25:43.982Z,47.97
2022-08-20T13:28:11.555Z,46.96
2022-08-20T13:30:40.962Z,47.01
2022-08-20T13:33:08.708Z,48.22
2022-08-20T13:35:36.644Z,48.39
2022-08-20T13:38:04.288Z,48.97
2022-08-20T13:40:32.448Z,47.87
2022-08-20T13:43:05.951Z,48.04
2022-08-20T13:45:37.011Z,49.16
2022-08-20T13:48:06.854Z,48.57
2022-08-20T13:50:42.486Z,49.25
2022-08-20T13:53:10.637Z,47.96
2022-08-20T13:55:38.542Z,46.54
2022-08-20T13:58:08.084Z,46.54
2022-08-20T14:00:36.633Z,47.82
2022-08-20T14:03:06.365Z,47.65
2022-08-20T14:05:35.244Z,48.10
2022-08-20T14:08:17.991Z,47.80
2022-08-20T14:10:51.373Z,47.70
2022-08-20T14:13:22.559Z,48.86
2022-08-20T14:15:51.285Z,49.88
2022-08-20T14:18:19.999Z,49.82
2022-08-20T14:20:47.571Z,47.56
2022-08-20T14:23:16.178Z,48.08
2022-08-20T14:25:49.487Z,48.10
2022-08-20T14:28:20.443Z,48.78
2022-08-20T14:30:53.063Z,47.88
2022-08-20T14:33:23.722Z,46.60
2022-08-20T14:35:53.284Z,46.30
2022-08-20T14:38:20.983Z,47.30
2022-08-20T14:40:50.496Z,48.42
2022-08-20T14:43:18.656Z,48.87
2022-08-20T14:45:46.292Z,48.81
2022-08-20T14:48:14.992Z,48.97
2022-08-20T14:50:43.160Z,46.35
2022-08-20T14:53:10.772Z,47.17
2022-08-20T14:55:38.939Z,47.98
2022-08-20T14:58:09.449Z,47.34
2022-08-20T15:00:38.029Z,47.34
2022-08-20T15:03:05.574Z,48.48
2022-08-20T15:05:34.533Z,48.29
2022-08-20T15:08:08.145Z,49.89
2022-08-20T15:10:39.489Z,50.27
2022-08-20T15:13:07.974Z,49.65
2022-08-20T15:15:35.527Z,48.51
2022-08-20T15:18:04.203Z,49.23
2022-08-20T15:20:33.457Z,48.15
2022-08-20T15:23:02.385Z,48.55
2022-08-20T15:25:37.005Z,48.67
2022-08-20T15:28:08.486Z,47.01
2022-08-20T15:30:38.111Z,47.37
2022-08-20T15:33:06.096Z,48.41
2022-08-20T15:35:34.511Z,47.44
2022-08-20T15:38:02.203Z,45.98
2022-08-20T15:40:32.823Z,44.38
2022-08-20T15:43:03.359Z,41.87
2022-08-20T15:45:32.050Z,40.77
2022-08-20T15:48:12.605Z,40.33
2022-08-20T15:51:02.993Z,41.75
2022-08-20T15:53:45.637Z,41.09
2022-08-20T15:56:31.959Z,41.37
2022-08-20T15:59:05.557Z,42.75
2022-08-20T16:01:42.659Z,43.27
2022-08-20T16:04:51.630Z,44.05
2022-08-20T16:07:37.462Z,45.52
2022-08-20T16:10:22.041Z,46.74
2022-08-20T16:12:55.487Z,46.47
2022-08-20T16:15:33.107Z,45.70
2022-08-20T16:18:23.275Z,43.89
2022-08-20T16:20:54.822Z,44.60
2022-08-20T16:23:30.430Z,43.45
2022-08-20T16:26:25.868Z,42.53
2022-08-20T16:29:22.782Z,43.31
2022-08-20T16:31:59.976Z,42.98
2022-08-20T16:34:45.483Z,44.09
2022-08-20T16:37:31.195Z,45.93
2022-08-20T16:40:26.100Z,44.72
2022-08-20T16:42:57.363Z,43.92
2022-08-20T16:45:35.474Z,44.76
2022-08-20T16:48:06.056Z,45.60
2022-08-20T16:51:03.152Z,45.10
2022-08-20T16:53:32.029Z,45.44
2022-08-20T16:56:00.366Z,45.43
2022-08-20T16:58:27.937Z,45.55
2022-08-20T17:01:15.057Z,45.30
2022-08-20T17:03:50.463Z,45.66
2022-08-20T17:06:32.205Z,46.02
2022-08-20T17:09:05.409Z,45.13
2022-08-20T17:11:36.752Z,44.69
2022-08-20T17:14:14.732Z,42.38
2022-08-20T17:16:45.622Z,43.61
2022-08-20T17:19:34.254Z,44.09
2022-08-20T17:22:18.046Z,43.66
2022-08-20T17:24:48.436Z,42.11
2022-08-20T17:27:33.223Z,42.39
2022-08-20T17:30:10.766Z,42.61
2022-08-20T17:33:28.309Z,41.43
2022-08-20T17:36:04.287Z,38.64
2022-08-20T17:38:48.053Z,36.16
2022-08-20T17:41:27.022Z,35.19
2022-08-20T17:44:07.549Z,34.68
2022-08-20T17:46:45.825Z,34.37
2022-08-20T17:49:19.388Z,33.92
2022-08-20T17:51:54.025Z,33.53
2022-08-20T17:54:37.983Z,33.22
2022-08-20T17:57:12.938Z,32.67
2022-08-20T18:00:00.960Z,32.39
2022-08-20T18:02:34.350Z,32.12
2022-08-20T18:05:02.751Z,32.04
2022-08-20T18:07:40.964Z,31.91
2022-08-20T18:10:14.915Z,31.74
2022-08-20T18:13:10.346Z,31.58
2022-08-20T18:15:45.257Z,31.48
2022-08-20T18:18:27.831Z,31.72
2022-08-20T18:21:30.623Z,31.76
2022-08-20T18:24:07.204Z,31.73
2022-08-20T18:26:54.185Z,31.55
2022-08-20T18:29:30.520Z,31.10
2022-08-20T18:32:07.481Z,30.72
2022-08-20T18:34:40.775Z,30.76
2022-08-20T18:37:14.918Z,30.47
2022-08-20T18:39:46.504Z,30.56
2022-08-20T18:42:32.210Z,30.42
2022-08-20T18:45:00.324Z,30.31
2022-08-20T18:47:32.573Z,30.39
2022-08-20T18:50:18.193Z,30.23
2022-08-20T18:52:50.581Z,29.98
2022-08-20T18:55:32.655Z,29.97
2022-08-20T18:58:03.589Z,29.78
2022-08-20T19:00:46.543Z,29.72
2022-08-20T19:03:19.769Z,29.50
2022-08-20T19:06:05.907Z,29.37
2022-08-20T19:08:49.120Z,29.37
2022-08-20T19:11:50.626Z,29.10
2022-08-20T19:14:37.212Z,28.90
2022-08-20T19:17:10.646Z,28.73
2022-08-20T19:19:39.133Z,28.86
2022-08-20T19:22:07.207Z,28.95
2022-08-20T19:24:35.825Z,29.06
2022-08-20T19:27:07.621Z,29.00
2022-08-20T19:29:46.402Z,29.19
2022-08-20T19:32:30.082Z,28.90
2022-08-20T19:35:01.102Z,28.49
2022-08-20T19:37:39.751Z,28.44
2022-08-20T19:40:46.174Z,28.33
2022-08-20T19:43:19.659Z,28.35
2022-08-20T19:45:55.915Z,28.30
2022-08-20T19:48:39.242Z,28.02
2022-08-20T19:51:40.732Z,27.80
2022-08-20T19:54:25.461Z,28.08
2022-08-20T19:56:58.528Z,28.12
2022-08-20T19:59:26.684Z,28.04
2022-08-20T20:02:00.217Z,27.98
2022-08-20T20:04:36.895Z,27.86
2022-08-20T20:07:16.177Z,27.84
2022-08-20T20:09:54.266Z,27.57
2022-08-20T20:12:23.230Z,27.67
2022-08-20T20:14:55.588Z,27.51
2022-08-20T20:17:27.642Z,27.34
2022-08-20T20:19:59.489Z,27.32
2022-08-20T20:22:34.008Z,27.24
2022-08-20T20:25:13.361Z,27.04
2022-08-20T20:27:41.644Z,26.94
2022-08-20T20:30:12.809Z,26.83
2022-08-20T20:32:47.284Z,26.97
2022-08-20T20:35:34.035Z,27.14
2022-08-20T20:38:35.469Z,26.97
2022-08-20T20:41:06.122Z,27.17
2022-08-20T20:43:41.912Z,27.26
2022-08-20T20:46:29.712Z,27.34
2022-08-20T20:49:09.448Z,26.96
2022-08-20T20:51:42.680Z,26.69
2022-08-20T20:54:28.673Z,26.66
2022-08-20T20:57:03.983Z,26.43
2022-08-20T20:59:33.322Z,26.44
2022-08-20T21:02:02.127Z,26.47
2022-08-20T21:04:30.352Z,26.67
2022-08-20T21:07:03.462Z,26.50
2022-08-20T21:09:31.062Z,26.09
2022-08-20T21:12:00.161Z,25.98
2022-08-20T21:14:27.949Z,26.00
2022-08-20T21:16:58.421Z,25.85
2022-08-20T21:19:26.756Z,25.93
2022-08-20T21:21:54.411Z,26.05
2022-08-20T21:24:22.823Z,26.22
2022-08-20T21:26:51.876Z,26.09
2022-08-20T21:29:32.144Z,26.06
2022-08-20T21:32:01.232Z,26.07
2022-08-20T21:34:28.775Z,26.05
2022-08-20T21:36:56.868Z,25.93
2022-08-20T21:39:26.933Z,25.79
2022-08-20T21:41:59.263Z,25.83
2022-08-20T21:44:29.743Z,25.74
2022-08-20T21:46:59.329Z,25.64
2022-08-20T21:49:29.480Z,25.53
2022-08-20T21:51:58.523Z,25.70
2022-08-20T21:54:27.228Z,25.71
2022-08-20T21:57:08.215Z,25.64
2022-08-20T21:59:38.221Z,25.49
2022-08-20T22:02:06.606Z,25.40
2022-08-20T22:04:35.612Z,25.32
2022-08-20T22:07:05.260Z,25.27
2022-08-20T22:09:33.981Z,25.24
2022-08-20T22:12:01.818Z,25.26
2022-08-20T22:14:30.791Z,25.36
2022-08-20T22:16:58.892Z,25.49
2022-08-20T22:19:26.394Z,25.60
2022-08-20T22:21:55.175Z,25.53
2022-08-20T22:24:24.522Z,25.42
2022-08-20T22:26:52.366Z,25.19
2022-08-20T22:29:20.376Z,25.14
2022-08-20T22:31:48.059Z,25.07
2022-08-20T22:34:18.676Z,25.09
2022-08-20T22:36:46.899Z,25.22
2022-08-20T22:39:14.837Z,25.23
2022-08-20T22:41:42.522Z,25.03
2022-08-20T22:44:10.192Z,24.96
2022-08-20T22:46:45.049Z,24.87
2022-08-20T22:49:19.148Z,24.84
2022-08-20T22:51:47.679Z,24.63
2022-08-20T22:54:20.868Z,24.70
2022-08-20T22:56:49.391Z,24.80
2022-08-20T22:59:20.326Z,24.87
2022-08-20T23:01:48.254Z,24.83
2022-08-20T23:04:27.470Z,24.80
2022-08-20T23:06:57.176Z,24.83
2022-08-20T23:09:25.408Z,24.76
2022-08-20T23:11:53.442Z,24.96
2022-08-20T23:14:21.591Z,24.88
2022-08-20T23:17:09.020Z,24.78
2022-08-20T23:19:40.233Z,24.65
2022-08-20T23:22:08.643Z,24.53
2022-08-20T23:24:37.248Z,24.75
2022-08-20T23:27:08.768Z,24.78
2022-08-20T23:29:36.784Z,24.82
2022-08-20T23:32:04.618Z,24.79
2022-08-20T23:34:33.376Z,24.57
2022-08-20T23:37:02.795Z,24.64
2022-08-20T23:39:31.552Z,24.66
2022-08-20T23:41:59.764Z,24.62
2022-08-20T23:44:28.128Z,24.62
2022-08-20T23:46:58.477Z,24.62
2022-08-20T23:49:27.937Z,24.44
2022-08-20T23:51:57.761Z,24.42
2022-08-20T23:54:25.738Z,24.32
2022-08-20T23:56:56.783Z,24.28
2022-08-20T23:59:25.933Z,24.40
